Dati Storici

Data ora Umidita' aria (%) Temperatura aria (°C) Rad globale (W/m²) Gonioanemometro (°) Tacoanemometro (m/s) Pioggia (mm)
23-10-2012 01:20 86 % 12.733 0.482 1.312 1.201 0
23-10-2012 01:10 86 % 12.988 0.456 26.213 0.874 0
23-10-2012 01:00 86 % 13.111 -0.006 312.535 1.03 0
23-10-2012 00:50 86.1 % 13.399 0.263 18.417 1.126 0
23-10-2012 00:40 86.7 % 13.664 0.276 37.783 0.628 0
23-10-2012 00:30 87.5 % 13.736 0.148 348.772 0.67 0
23-10-2012 00:20 88.7 % 13.953 0.276 1.251 0.608 0
23-10-2012 00:10 90.2 % 13.868 0.366 355.165 0.316 0
23-10-2012 00:00 90.6 % 13.778 0.379 327.01 0.452 0
22-10-2012 23:50 90.9 % 13.769 0.43 271.926 0.454 0
22-10-2012 23:40 90.7 % 13.886 0.469 307.418 0.169 0
22-10-2012 23:30 91.3 % 14.095 1.175 5.554 0.896 0
22-10-2012 23:20 90.8 % 14.164 1.175 12.545 0.492 0
22-10-2012 23:10 91.5 % 14.575 0.688 351.251 0.739 0
22-10-2012 23:00 90.8 % 14.301 0.675 330.735 0.586 0
22-10-2012 22:50 90.1 % 14.37 0.341 290.793 0.293 0
22-10-2012 22:40 89.4 % 14.564 0.392 308.353 0.363 0
22-10-2012 22:30 89.3 % 14.898 0.675 323.553 0.291 0
22-10-2012 22:20 88.8 % 14.964 0.26 342.649 0.804 0
22-10-2012 22:10 88.7 % 15.083 0.26 1.883 0.468 0

I dati sono presentati in modo automatico a scopo informativo. In seguito a verifica i dati possono subire modifiche o essere invalidati e non riportati negli archivi definitivi.